Time;durP1;ratioP1;P1;durP2;ratioP2;P2;SDS_P1;SDS_P2;PMS_P1;PMS_P2;Temp;Humidity;BMP_temperature;BMP_pressure;BME280_temperature;BME280_humidity;BME280_pressure;Samples;Min_cycle;Max_cycle;Signal;HPM_P1;HPM_P2
2022/11/09 00:02:23;;;;;;;7.63;2.00;;;11.70;99.90;;;;;;5067276;28;20425;-66
2022/11/09 00:04:49;;;;;;;6.47;1.95;;;11.70;99.90;;;;;;5052908;28;20102;-66
2022/11/09 00:07:15;;;;;;;5.35;1.90;;;11.70;99.90;;;;;;5070957;28;20045;-66
2022/11/09 00:09:41;;;;;;;3.72;2.15;;;11.70;99.90;;;;;;5070886;28;20040;-66
2022/11/09 00:12:07;;;;;;;5.10;2.45;;;11.70;99.90;;;;;;5052509;28;20040;-66
2022/11/09 00:14:34;;;;;;;8.13;3.40;;;11.80;99.90;;;;;;5069072;28;20032;-67
2022/11/09 00:17:01;;;;;;;8.48;2.67;;;11.80;99.90;;;;;;5074508;28;20037;-66
2022/11/09 00:19:27;;;;;;;8.32;2.90;;;11.80;99.90;;;;;;5074488;28;20093;-66
2022/11/09 00:21:53;;;;;;;6.03;3.03;;;11.90;99.90;;;;;;5040220;28;20040;-66
2022/11/09 00:24:20;;;;;;;6.85;3.35;;;11.90;99.90;;;;;;5056755;28;20040;-66
2022/11/09 00:26:46;;;;;;;7.45;3.25;;;12.00;99.90;;;;;;5074304;28;20037;-66
2022/11/09 00:29:12;;;;;;;8.02;3.22;;;12.00;99.90;;;;;;5074340;28;20506;-66
2022/11/09 00:31:38;;;;;;;6.55;3.17;;;12.10;99.90;;;;;;5074344;28;20040;-66
2022/11/09 00:34:04;;;;;;;6.93;3.40;;;12.10;99.90;;;;;;5056475;28;20127;-67
2022/11/09 00:36:30;;;;;;;12.23;4.22;;;12.10;99.90;;;;;;5074198;28;20040;-66
2022/11/09 00:38:59;;;;;;;6.10;3.53;;;12.10;99.90;;;;;;5039904;28;20450;-66
2022/11/09 00:41:26;;;;;;;6.50;2.80;;;12.10;99.90;;;;;;5056497;28;20052;-66
2022/11/09 00:43:55;;;;;;;9.23;3.17;;;12.10;99.90;;;;;;5054363;28;20040;-66
2022/11/09 00:46:21;;;;;;;7.13;2.72;;;12.10;99.90;;;;;;5056337;28;20060;-67
2022/11/09 00:48:47;;;;;;;8.70;3.53;;;12.10;99.90;;;;;;5056142;28;20474;-66
2022/11/09 00:51:14;;;;;;;7.57;2.60;;;12.20;99.90;;;;;;5074236;28;20436;-67
2022/11/09 00:53:41;;;;;;;7.65;2.42;;;12.30;99.90;;;;;;5074215;28;20562;-66
2022/11/09 00:56:13;;;;;;;6.40;2.63;;;12.30;99.90;;;;;;5055944;28;20048;-66
2022/11/09 00:58:42;;;;;;;6.40;2.60;;;12.30;99.90;;;;;;5073696;28;20033;-67
2022/11/09 01:01:13;;;;;;;11.15;2.88;;;12.30;99.90;;;;;;5055907;28;20047;-66
2022/11/09 01:03:39;;;;;;;7.85;3.08;;;12.30;99.90;;;;;;5073603;28;20064;-67
2022/11/09 01:06:07;;;;;;;6.68;2.15;;;12.30;99.90;;;;;;5073768;28;20650;-67
2022/11/09 01:08:34;;;;;;;6.72;2.60;;;12.30;99.90;;;;;;5055774;28;20460;-67
2022/11/09 01:11:08;;;;;;;8.20;2.90;;;12.40;99.90;;;;;;5073634;28;20116;-69
2022/11/09 01:13:36;;;;;;;5.35;2.00;;;12.40;99.90;;;;;;5071321;28;20032;-67
2022/11/09 01:16:11;;;;;;;8.38;2.50;;;12.40;99.90;;;;;;5073867;28;20044;-67
2022/11/09 01:18:38;;;;;;;13.88;2.95;;;12.50;99.90;;;;;;5055870;28;20048;-66
2022/11/09 01:21:06;;;;;;;5.80;2.70;;;12.50;99.90;;;;;;5055648;28;20033;-67
2022/11/09 01:23:33;;;;;;;8.88;2.85;;;12.50;99.90;;;;;;5055626;28;20075;-66
2022/11/09 01:26:01;;;;;;;7.72;2.70;;;12.50;99.90;;;;;;5055182;28;20391;-66
2022/11/09 01:28:28;;;;;;;9.13;3.53;;;12.50;99.90;;;;;;5055283;28;20101;-66
2022/11/09 01:30:55;;;;;;;8.15;3.03;;;12.50;99.90;;;;;;5055715;28;20443;-66
2022/11/09 01:33:21;;;;;;;10.40;3.08;;;12.40;99.90;;;;;;5073498;28;20028;-66
2022/11/09 01:35:47;;;;;;;9.05;3.05;;;12.50;99.90;;;;;;5073213;28;20517;-67
2022/11/09 01:38:13;;;;;;;6.78;3.03;;;12.40;99.90;;;;;;5055410;28;20052;-66
2022/11/09 01:40:40;;;;;;;6.05;2.60;;;12.40;99.90;;;;;;5055452;28;20045;-66
2022/11/09 01:43:19;;;;;;;10.70;3.50;;;12.40;99.90;;;;;;5053149;28;20044;-66
2022/11/09 01:45:51;;;;;;;10.38;2.95;;;12.40;99.90;;;;;;5055334;28;20127;-66
2022/11/09 01:48:23;;;;;;;6.35;2.20;;;12.40;99.90;;;;;;5054898;28;20067;-66
2022/11/09 01:51:00;;;;;;;7.07;2.70;;;12.40;99.90;;;;;;5072991;28;20698;-66
2022/11/09 01:53:33;;;;;;;8.60;2.20;;;12.40;99.90;;;;;;5055080;28;20040;-66
2022/11/09 01:56:03;;;;;;;9.40;2.95;;;12.40;99.90;;;;;;5063995;28;20056;-66
2022/11/09 01:58:36;;;;;;;7.43;2.25;;;12.40;99.90;;;;;;5092844;28;20077;-66
2022/11/09 02:01:04;;;;;;;7.38;2.45;;;12.40;99.90;;;;;;5058393;28;20059;-67
2022/11/09 02:03:36;;;;;;;8.40;2.60;;;12.30;99.90;;;;;;5058077;28;20044;-66
2022/11/09 02:06:07;;;;;;;8.95;2.63;;;12.30;99.90;;;;;;5074851;28;20044;-66
2022/11/09 02:08:33;;;;;;;9.85;2.92;;;12.30;99.90;;;;;;5074600;28;20494;-66
2022/11/09 02:11:10;;;;;;;8.40;2.33;;;12.30;99.90;;;;;;5074813;28;20039;-66
2022/11/09 02:13:44;;;;;;;7.28;2.10;;;12.20;99.90;;;;;;5090399;28;20043;-67
2022/11/09 02:16:13;;;;;;;11.68;2.70;;;12.10;99.90;;;;;;5074546;28;20035;-67
2022/11/09 02:18:51;;;;;;;9.55;2.58;;;12.10;99.90;;;;;;5057994;28;20051;-67
2022/11/09 02:21:18;;;;;;;6.63;2.20;;;12.10;99.90;;;;;;5074672;28;20040;-66
2022/11/09 02:23:45;;;;;;;6.90;2.95;;;12.10;99.90;;;;;;5092425;28;20490;-66
2022/11/09 02:26:20;;;;;;;7.97;2.22;;;12.10;99.90;;;;;;5074409;28;20044;-67
2022/11/09 02:28:51;;;;;;;6.38;2.30;;;12.10;99.90;;;;;;5074201;28;20127;-66
2022/11/09 02:31:19;;;;;;;7.65;1.90;;;12.10;99.90;;;;;;5057916;28;20036;-68
2022/11/09 02:34:07;;;;;;;9.68;2.30;;;12.00;99.90;;;;;;5074370;28;20079;-67
2022/11/09 02:36:34;;;;;;;8.32;2.70;;;12.10;99.90;;;;;;5057677;28;20629;-67
2022/11/09 02:39:01;;;;;;;6.60;2.33;;;12.00;99.90;;;;;;5073242;28;20692;-67
2022/11/09 02:41:31;;;;;;;8.40;2.20;;;12.00;99.90;;;;;;5074157;28;20043;-68
2022/11/09 02:43:59;;;;;;;9.27;2.75;;;12.00;99.90;;;;;;5071918;28;20043;-67
2022/11/09 02:46:32;;;;;;;7.25;2.10;;;12.00;99.90;;;;;;5092015;28;20040;-67
2022/11/09 02:48:59;;;;;;;11.00;2.60;;;11.90;99.90;;;;;;5073840;28;20501;-67
2022/11/09 02:51:25;;;;;;;8.35;3.10;;;11.90;99.90;;;;;;5073961;28;20409;-68
2022/11/09 02:53:51;;;;;;;9.45;2.58;;;11.90;99.90;;;;;;5074092;28;20126;-66
2022/11/09 02:56:18;;;;;;;9.35;2.25;;;11.80;99.90;;;;;;5073670;28;20060;-68
2022/11/09 02:58:44;;;;;;;8.80;1.92;;;11.80;99.90;;;;;;5073963;28;20126;-67
2022/11/09 03:01:10;;;;;;;8.50;3.08;;;11.80;99.90;;;;;;5091890;28;20054;-67
2022/11/09 03:03:36;;;;;;;6.00;1.98;;;11.80;99.90;;;;;;5073840;28;20056;-67
2022/11/09 03:06:03;;;;;;;9.27;2.05;;;11.80;99.90;;;;;;5091767;28;20530;-67
2022/11/09 03:08:29;;;;;;;8.60;2.22;;;11.80;99.90;;;;;;5091667;28;20072;-67
2022/11/09 03:10:55;;;;;;;9.27;2.20;;;11.80;99.90;;;;;;5073378;28;20656;-66
2022/11/09 03:13:21;;;;;;;8.77;2.00;;;11.80;99.90;;;;;;5088146;28;20130;-67
2022/11/09 03:15:47;;;;;;;9.98;2.20;;;11.80;99.90;;;;;;5091788;28;20092;-67
2022/11/09 03:18:14;;;;;;;12.95;2.50;;;11.80;99.90;;;;;;5057004;28;20071;-67
2022/11/09 03:20:40;;;;;;;10.60;2.20;;;11.80;99.90;;;;;;5073672;28;20390;-67
2022/11/09 03:23:07;;;;;;;7.63;2.22;;;11.70;99.90;;;;;;5090389;28;20048;-68
2022/11/09 03:25:33;;;;;;;7.28;2.10;;;11.70;99.90;;;;;;5073492;28;20048;-67
2022/11/09 03:28:01;;;;;;;11.38;2.88;;;11.70;99.90;;;;;;5056722;28;20071;-67
2022/11/09 03:30:27;;;;;;;9.63;1.77;;;11.70;99.90;;;;;;5056883;28;20038;-67
2022/11/09 03:33:08;;;;;;;10.02;2.15;;;11.70;99.90;;;;;;5073509;28;20043;-67
2022/11/09 03:35:38;;;;;;;8.20;1.95;;;11.70;99.90;;;;;;5073435;28;20047;-67
2022/11/09 03:38:04;;;;;;;12.00;3.25;;;11.60;99.90;;;;;;5073146;28;20543;-67
2022/11/09 03:40:31;;;;;;;12.23;2.58;;;11.60;99.90;;;;;;5073328;28;20127;-67
2022/11/09 03:42:58;;;;;;;6.90;1.80;;;11.60;99.90;;;;;;5071172;28;20040;-67
2022/11/09 03:45:26;;;;;;;7.53;1.92;;;11.50;99.90;;;;;;5073446;28;20117;-67
2022/11/09 03:47:58;;;;;;;8.45;1.80;;;11.50;99.90;;;;;;5090953;28;20040;-67
2022/11/09 03:50:29;;;;;;;10.35;2.10;;;11.50;99.90;;;;;;5078355;28;20047;-67
2022/11/09 03:52:56;;;;;;;10.55;2.05;;;11.40;99.90;;;;;;5097930;28;20389;-67
2022/11/09 03:55:23;;;;;;;7.97;1.85;;;11.40;99.90;;;;;;5079775;28;20113;-68
2022/11/09 03:57:50;;;;;;;8.70;2.30;;;11.40;99.90;;;;;;5079791;28;20054;-67
2022/11/09 04:00:18;;;;;;;7.35;1.92;;;11.40;99.90;;;;;;5079941;28;20539;-66
2022/11/09 04:02:45;;;;;;;10.77;1.83;;;11.40;99.90;;;;;;5063193;28;20567;-68
2022/11/09 04:05:14;;;;;;;9.52;2.30;;;11.40;99.90;;;;;;5079742;28;20448;-68
2022/11/09 04:07:46;;;;;;;10.00;2.25;;;11.40;99.90;;;;;;5063077;28;20097;-67
2022/11/09 04:10:12;;;;;;;7.07;2.03;;;11.40;99.90;;;;;;5097663;28;20378;-68
2022/11/09 04:12:38;;;;;;;9.65;1.70;;;11.40;99.90;;;;;;5077634;28;20040;-67
2022/11/09 04:15:06;;;;;;;11.07;2.20;;;11.40;99.90;;;;;;5097724;28;20078;-67
2022/11/09 04:17:32;;;;;;;12.90;2.50;;;11.40;99.90;;;;;;5063163;28;20561;-67
2022/11/09 04:19:59;;;;;;;7.38;2.70;;;11.40;99.90;;;;;;5079554;28;20036;-67
2022/11/09 04:22:25;;;;;;;8.35;2.17;;;11.40;99.90;;;;;;5063011;28;20390;-67
2022/11/09 04:24:52;;;;;;;7.25;1.88;;;11.50;99.90;;;;;;5079619;28;20043;-67
2022/11/09 04:27:18;;;;;;;9.75;2.70;;;11.60;99.90;;;;;;5097510;28;20089;-68
2022/11/09 04:29:44;;;;;;;9.93;2.03;;;11.60;99.90;;;;;;5097629;28;20462;-67
2022/11/09 04:32:14;;;;;;;13.07;1.75;;;11.60;99.90;;;;;;5079734;28;20620;-68
2022/11/09 04:34:40;;;;;;;11.60;2.15;;;11.70;99.90;;;;;;5079534;28;20032;-68
2022/11/09 04:37:08;;;;;;;8.25;1.95;;;11.70;99.90;;;;;;5079659;28;20502;-68
2022/11/09 04:39:35;;;;;;;15.68;3.83;;;11.80;99.90;;;;;;5062842;28;20127;-68
2022/11/09 04:42:01;;;;;;;9.13;1.83;;;11.90;99.90;;;;;;5079679;28;20040;-67
2022/11/09 04:44:31;;;;;;;8.50;2.15;;;11.90;99.90;;;;;;5095208;28;20044;-67
2022/11/09 04:46:57;;;;;;;8.90;2.10;;;11.90;99.90;;;;;;5062735;28;20621;-66
2022/11/09 04:49:24;;;;;;;8.38;2.20;;;11.90;99.90;;;;;;5079500;28;20122;-68
2022/11/09 04:51:50;;;;;;;9.43;1.83;;;11.90;99.90;;;;;;5097463;28;20036;-67
2022/11/09 04:54:17;;;;;;;9.82;2.25;;;11.90;99.90;;;;;;5079393;28;20040;-67
2022/11/09 04:56:43;;;;;;;12.20;2.40;;;11.90;99.90;;;;;;5062392;28;20063;-67
2022/11/09 04:59:12;;;;;;;10.70;2.47;;;11.90;99.90;;;;;;5096874;28;20040;-67
2022/11/09 05:01:39;;;;;;;6.38;2.20;;;11.80;99.90;;;;;;5092785;28;20040;-67
2022/11/09 05:04:06;;;;;;;14.93;2.50;;;11.90;99.90;;;;;;5114516;28;20516;-65
2022/11/09 05:06:32;;;;;;;8.65;2.10;;;11.80;99.90;;;;;;5096410;28;20516;-67
2022/11/09 05:09:05;;;;;;;12.65;2.13;;;11.80;99.90;;;;;;5096118;28;20473;-66
2022/11/09 05:11:33;;;;;;;11.20;2.67;;;11.80;99.90;;;;;;5079354;28;20058;-67
2022/11/09 05:14:00;;;;;;;6.90;2.47;;;11.80;99.90;;;;;;5077245;28;20374;-67
2022/11/09 05:16:28;;;;;;;10.82;2.17;;;11.80;99.90;;;;;;5096053;28;20042;-66
2022/11/09 05:18:58;;;;;;;14.32;2.70;;;11.80;99.90;;;;;;5096187;28;20043;-67
2022/11/09 05:21:24;;;;;;;5.53;2.50;;;11.80;99.90;;;;;;5114192;28;20035;-66
2022/11/09 05:23:59;;;;;;;9.57;2.10;;;11.80;99.90;;;;;;5113840;28;20038;-67
2022/11/09 05:26:36;;;;;;;7.03;1.92;;;11.70;99.90;;;;;;5095908;28;20093;-67
2022/11/09 05:29:09;;;;;;;13.82;2.33;;;11.70;99.90;;;;;;5113946;28;20131;-67
2022/11/09 05:31:36;;;;;;;10.25;2.17;;;11.70;99.90;;;;;;5114081;28;20645;-67
2022/11/09 05:34:07;;;;;;;6.43;2.28;;;11.60;99.90;;;;;;5095837;28;20042;-67
2022/11/09 05:36:33;;;;;;;6.93;2.10;;;11.60;99.90;;;;;;5095789;28;20136;-67
2022/11/09 05:39:00;;;;;;;7.53;2.25;;;11.60;99.90;;;;;;5113761;28;20104;-66
2022/11/09 05:41:27;;;;;;;9.45;2.80;;;11.60;99.90;;;;;;5095801;28;20066;-66
2022/11/09 05:43:54;;;;;;;10.38;2.88;;;11.60;99.90;;;;;;5111539;28;20046;-67
2022/11/09 05:46:21;;;;;;;11.40;2.22;;;11.60;99.90;;;;;;5078771;28;20039;-67
2022/11/09 05:48:47;;;;;;;7.10;1.77;;;11.50;99.90;;;;;;5095343;28;20065;-68
2022/11/09 05:51:15;;;;;;;12.57;2.42;;;11.50;99.90;;;;;;5095591;28;20058;-67
2022/11/09 05:53:42;;;;;;;8.05;2.30;;;11.50;99.90;;;;;;5095351;28;20036;-66
2022/11/09 05:56:11;;;;;;;6.13;2.45;;;11.50;99.90;;;;;;5091844;28;20098;-67
2022/11/09 05:58:38;;;;;;;5.60;2.00;;;11.50;99.90;;;;;;5091941;28;20101;-67
2022/11/09 06:01:06;;;;;;;11.45;2.35;;;11.50;99.90;;;;;;5091787;28;20040;-66
2022/11/09 06:03:33;;;;;;;8.02;2.20;;;11.50;99.90;;;;;;5075128;28;20037;-67
2022/11/09 06:06:01;;;;;;;8.05;2.17;;;11.50;99.90;;;;;;5091989;28;20051;-67
2022/11/09 06:08:27;;;;;;;10.15;1.90;;;11.50;99.90;;;;;;5091598;28;20073;-66
2022/11/09 06:11:02;;;;;;;9.95;2.85;;;11.50;99.90;;;;;;5092804;28;20047;-67
2022/11/09 06:13:29;;;;;;;7.78;2.13;;;11.60;99.90;;;;;;5071164;28;20489;-67
2022/11/09 06:15:57;;;;;;;8.80;2.10;;;11.60;99.90;;;;;;5074978;28;20146;-67
2022/11/09 06:18:28;;;;;;;9.02;2.00;;;11.60;99.90;;;;;;5091658;28;20044;-67
2022/11/09 06:20:56;;;;;;;13.02;2.85;;;11.60;99.90;;;;;;5091606;28;20094;-66
2022/11/09 06:23:26;;;;;;;7.68;2.25;;;11.60;99.90;;;;;;5091223;28;20109;-68
2022/11/09 06:25:56;;;;;;;13.05;2.53;;;11.60;99.90;;;;;;5091392;28;20040;-67
2022/11/09 06:28:22;;;;;;;8.52;2.78;;;11.60;99.90;;;;;;5092464;28;20081;-67
2022/11/09 06:30:48;;;;;;;6.68;2.05;;;11.50;99.90;;;;;;5092344;28;20417;-67
2022/11/09 06:33:18;;;;;;;7.28;1.98;;;11.50;99.90;;;;;;5091460;28;20119;-67
2022/11/09 06:35:44;;;;;;;9.82;2.85;;;11.40;99.90;;;;;;5090974;28;20528;-67
2022/11/09 06:38:11;;;;;;;10.55;1.92;;;11.40;99.90;;;;;;5092288;28;20482;-67
2022/11/09 06:40:38;;;;;;;10.50;2.42;;;11.30;99.90;;;;;;5091155;28;20131;-67
2022/11/09 06:43:04;;;;;;;7.30;2.17;;;11.30;99.90;;;;;;5089964;28;20371;-66
2022/11/09 06:45:31;;;;;;;10.35;2.72;;;11.30;99.90;;;;;;5092177;28;20086;-66
2022/11/09 06:48:00;;;;;;;8.40;2.08;;;11.30;99.90;;;;;;5090654;28;20048;-67
2022/11/09 06:50:29;;;;;;;7.68;1.70;;;11.20;99.90;;;;;;5092052;28;20572;-67
2022/11/09 06:52:58;;;;;;;9.45;2.15;;;11.20;99.90;;;;;;5074201;28;20031;-67
2022/11/09 06:55:26;;;;;;;6.95;1.77;;;11.20;99.90;;;;;;5090757;28;20052;-67
2022/11/09 06:57:53;;;;;;;9.88;2.08;;;11.20;99.90;;;;;;5090652;28;20048;-67
2022/11/09 07:00:20;;;;;;;9.98;2.05;;;11.20;99.90;;;;;;5074015;28;20063;-67
2022/11/09 07:02:49;;;;;;;7.75;2.10;;;11.10;99.90;;;;;;5073871;28;20754;-67
2022/11/09 07:05:16;;;;;;;11.23;1.83;;;11.10;99.90;;;;;;5090822;28;20075;-67
2022/11/09 07:07:42;;;;;;;7.65;2.28;;;11.10;99.90;;;;;;5090559;28;20044;-66
2022/11/09 07:10:09;;;;;;;9.15;2.47;;;11.10;99.90;;;;;;5090742;28;20040;-67
2022/11/09 07:12:36;;;;;;;7.75;2.10;;;11.10;99.90;;;;;;5088446;28;20063;-67
2022/11/09 07:15:03;;;;;;;8.98;2.00;;;11.10;99.90;;;;;;5091879;28;20366;-67
2022/11/09 07:17:32;;;;;;;11.18;2.47;;;11.10;99.90;;;;;;5091591;28;20036;-67
2022/11/09 07:19:59;;;;;;;12.18;2.03;;;11.10;99.90;;;;;;5090653;28;20071;-66
2022/11/09 07:22:28;;;;;;;9.85;1.83;;;11.10;99.90;;;;;;5091497;28;20097;-66
2022/11/09 07:24:55;;;;;;;7.90;1.57;;;11.10;99.90;;;;;;5089977;28;20044;-67
2022/11/09 07:27:22;;;;;;;10.52;2.15;;;11.10;99.90;;;;;;5091361;28;20044;-66
2022/11/09 07:29:49;;;;;;;7.78;1.77;;;11.10;99.90;;;;;;5091458;28;20107;-67
2022/11/09 07:32:16;;;;;;;9.70;2.13;;;11.10;99.90;;;;;;5090375;28;20043;-66
2022/11/09 07:34:45;;;;;;;7.20;2.08;;;11.10;99.90;;;;;;5091304;28;20107;-67
2022/11/09 07:37:11;;;;;;;14.68;2.72;;;11.10;99.90;;;;;;5090402;28;20406;-66
2022/11/09 07:39:38;;;;;;;5.75;1.58;;;11.20;99.90;;;;;;5073177;28;20473;-66
2022/11/09 07:42:05;;;;;;;13.55;2.53;;;11.20;99.90;;;;;;5090068;28;20397;-66
2022/11/09 07:44:31;;;;;;;11.07;1.65;;;11.20;99.90;;;;;;5089131;28;20043;-66
2022/11/09 07:46:58;;;;;;;9.35;2.20;;;11.30;99.90;;;;;;5091192;28;20084;-66
2022/11/09 07:49:25;;;;;;;8.10;1.70;;;11.40;99.90;;;;;;5090012;28;20036;-67
2022/11/09 07:51:51;;;;;;;8.88;1.77;;;11.40;99.90;;;;;;5073397;28;20040;-67
2022/11/09 07:54:17;;;;;;;7.95;1.80;;;11.50;99.90;;;;;;5089874;28;20045;-67
2022/11/09 07:56:44;;;;;;;10.60;2.63;;;11.50;99.90;;;;;;5089838;28;20059;-67
2022/11/09 07:59:11;;;;;;;9.50;2.00;;;11.60;99.90;;;;;;5089951;28;20115;-67
2022/11/09 08:01:38;;;;;;;9.05;2.72;;;11.70;99.90;;;;;;5089797;28;20094;-67
2022/11/09 08:04:05;;;;;;;14.05;2.05;;;11.80;99.90;;;;;;5090098;28;20040;-68
2022/11/09 08:06:32;;;;;;;5.63;1.55;;;11.90;99.90;;;;;;5089803;28;20071;-67
2022/11/09 08:08:58;;;;;;;9.55;2.47;;;11.90;99.90;;;;;;5090310;28;20463;-66
2022/11/09 08:11:26;;;;;;;8.68;2.08;;;12.00;99.90;;;;;;5073022;28;20059;-67
2022/11/09 08:13:53;;;;;;;13.13;2.72;;;12.20;99.90;;;;;;5070896;28;20062;-67
2022/11/09 08:16:19;;;;;;;8.95;1.80;;;12.50;99.90;;;;;;5072901;28;20054;-66
2022/11/09 08:18:48;;;;;;;6.53;2.15;;;12.90;99.90;;;;;;5090819;28;20044;-67
2022/11/09 08:21:15;;;;;;;7.80;2.03;;;13.10;99.90;;;;;;5073053;28;20055;-67
2022/11/09 08:23:42;;;;;;;9.43;2.38;;;13.20;99.90;;;;;;5072768;28;20040;-67
2022/11/09 08:26:10;;;;;;;7.93;2.47;;;13.30;99.90;;;;;;5090903;28;20050;-67
2022/11/09 08:28:37;;;;;;;10.82;2.70;;;13.30;99.90;;;;;;5090774;28;20048;-67
2022/11/09 08:31:07;;;;;;;10.55;2.42;;;13.30;99.90;;;;;;5090849;28;20038;-67
2022/11/09 08:33:39;;;;;;;9.20;2.05;;;13.30;99.90;;;;;;5073004;28;20131;-67
2022/11/09 08:36:15;;;;;;;9.25;1.90;;;13.50;99.90;;;;;;5056729;28;20036;-67
2022/11/09 08:38:43;;;;;;;8.43;2.20;;;13.70;99.90;;;;;;5076534;28;20105;-68
2022/11/09 08:41:11;;;;;;;8.98;1.92;;;14.00;99.90;;;;;;5059927;28;20443;-68
2022/11/09 08:43:38;;;;;;;12.63;3.10;;;14.20;99.90;;;;;;5074408;28;20050;-67
2022/11/09 08:46:05;;;;;;;7.93;2.22;;;14.50;99.90;;;;;;5094457;28;20377;-68
2022/11/09 08:48:31;;;;;;;10.85;2.80;;;15.00;99.90;;;;;;5093973;28;20054;-68
2022/11/09 08:50:59;;;;;;;10.05;2.35;;;15.40;99.90;;;;;;5094363;28;20036;-68
2022/11/09 08:53:29;;;;;;;8.73;2.70;;;15.50;99.90;;;;;;5097135;28;20564;-68
2022/11/09 08:56:17;;;;;;;13.68;2.50;;;15.90;99.90;;;;;;5081567;28;20061;-67
2022/11/09 08:58:44;;;;;;;7.30;2.25;;;16.20;99.90;;;;;;5083106;28;20047;-68
2022/11/09 09:01:16;;;;;;;10.85;2.75;;;16.50;99.90;;;;;;5113116;28;20118;-67
2022/11/09 09:03:43;;;;;;;7.22;1.65;;;16.90;99.90;;;;;;5097703;28;20047;-67
2022/11/09 09:06:09;;;;;;;9.13;2.13;;;17.30;99.90;;;;;;5079300;28;20078;-68
2022/11/09 09:08:35;;;;;;;10.95;3.45;;;17.50;99.90;;;;;;5083497;28;20039;-68
2022/11/09 09:11:03;;;;;;;10.48;2.53;;;17.60;99.90;;;;;;5097257;28;20437;-67
2022/11/09 09:13:31;;;;;;;7.40;2.40;;;17.80;99.90;;;;;;5094964;28;20114;-69
2022/11/09 09:16:07;;;;;;;9.68;2.75;;;17.80;99.90;;;;;;5097389;28;20043;-69
2022/11/09 09:18:36;;;;;;;10.70;2.97;;;17.70;99.90;;;;;;5115367;28;20067;-69
2022/11/09 09:21:06;;;;;;;9.97;3.13;;;17.70;99.90;;;;;;5080582;28;20048;-69
2022/11/09 09:23:34;;;;;;;;;;;18.00;99.90;;;;;;5097609;28;20051;-68
2022/11/09 09:26:01;;;;;;;10.52;3.78;;;18.30;99.90;;;;;;5115015;28;19954;-68
2022/11/09 09:28:27;;;;;;;12.65;3.95;;;18.60;99.90;;;;;;5079839;28;20107;-68
2022/11/09 09:30:59;;;;;;;11.18;4.05;;;18.80;99.90;;;;;;5097161;28;20040;-69
2022/11/09 09:33:26;;;;;;;10.40;3.30;;;18.70;99.90;;;;;;5080257;28;20035;-68
2022/11/09 09:35:56;;;;;;;11.70;3.28;;;18.60;99.90;;;;;;5096960;28;20088;-70
2022/11/09 09:38:23;;;;;;;11.85;3.30;;;18.60;99.90;;;;;;5076235;28;20054;-68
2022/11/09 09:40:58;;;;;;;11.57;2.90;;;18.30;99.90;;;;;;5076020;28;20359;-69
2022/11/09 09:43:45;;;;;;;10.13;3.38;;;18.40;99.90;;;;;;5074263;28;20039;-67
2022/11/09 09:46:23;;;;;;;8.68;3.10;;;18.60;99.90;;;;;;5074006;28;20543;-68
2022/11/09 09:49:00;;;;;;;9.52;2.97;;;18.70;99.90;;;;;;5069705;28;20040;-69
2022/11/09 09:51:40;;;;;;;10.75;3.30;;;19.00;99.90;;;;;;5076191;28;20044;-70
2022/11/09 09:54:12;;;;;;;;;;;19.20;99.90;;;;;;5069793;28;20048;-68
2022/11/09 09:56:44;;;;;;;11.30;3.03;;;19.00;99.90;;;;;;5075753;28;19927;-69
2022/11/09 09:59:10;;;;;;;11.65;3.28;;;18.20;99.90;;;;;;5059318;28;20044;-69
2022/11/09 10:01:42;;;;;;;11.45;2.90;;;17.70;99.90;;;;;;5075637;28;20058;-68
2022/11/09 10:04:33;;;;;;;7.35;3.03;;;17.30;99.90;;;;;;5075989;28;20393;-68
2022/11/09 10:07:16;;;;;;;8.52;2.72;;;16.80;99.90;;;;;;5088817;28;20035;-69
2022/11/09 10:10:20;;;;;;;8.13;2.72;;;16.20;99.90;;;;;;5114070;28;20071;-68
2022/11/09 10:13:15;;;;;;;12.98;3.92;;;15.70;99.90;;;;;;5098531;28;20036;-68
2022/11/09 10:15:57;;;;;;;10.95;3.33;;;15.20;99.90;;;;;;5114305;28;20110;-69
2022/11/09 10:18:53;;;;;;;13.88;4.40;;;14.90;99.90;;;;;;5096022;28;20042;-69
2022/11/09 10:22:05;;;;;;;13.50;3.08;;;14.80;99.90;;;;;;5095998;28;20069;-69
2022/11/09 10:24:38;;;;;;;13.93;4.70;;;15.50;99.90;;;;;;5058039;28;20100;-69
2022/11/09 10:27:32;;;;;;;10.45;2.95;;;16.30;99.90;;;;;;5095936;28;20039;-69
2022/11/09 10:30:00;;;;;;;11.30;3.20;;;16.10;99.90;;;;;;5095684;28;20039;-69
2022/11/09 10:32:32;;;;;;;11.57;2.63;;;15.60;99.90;;;;;;5095769;28;20054;-69
2022/11/09 10:35:43;;;;;;;14.45;3.00;;;15.30;99.90;;;;;;5113727;28;20494;-68
2022/11/09 10:38:37;;;;;;;8.65;2.75;;;15.20;99.90;;;;;;5010814;28;20082;-68
2022/11/09 10:41:22;;;;;;;13.88;3.72;;;14.90;99.90;;;;;;5095419;28;20047;-68
2022/11/09 10:43:48;;;;;;;10.80;2.83;;;14.70;99.90;;;;;;5093045;28;20051;-68
2022/11/09 10:46:14;;;;;;;10.52;2.97;;;14.60;99.90;;;;;;5104918;28;20042;-68
2022/11/09 10:48:41;;;;;;;14.07;3.58;;;14.60;99.90;;;;;;5095098;28;20471;-68
2022/11/09 10:51:32;;;;;;;9.25;2.85;;;14.60;99.90;;;;;;5113467;28;20389;-68
2022/11/09 10:54:27;;;;;;;8.82;2.90;;;14.50;99.90;;;;;;5113222;28;20032;-68
2022/11/09 10:57:15;;;;;;;13.15;2.70;;;14.30;99.90;;;;;;5098761;28;20540;-69
2022/11/09 10:59:53;;;;;;;11.20;2.83;;;14.10;99.90;;;;;;5070206;28;20486;-68
2022/11/09 11:02:25;;;;;;;9.85;2.45;;;14.00;99.90;;;;;;5057996;28;20093;-67
2022/11/09 11:05:07;;;;;;;7.82;3.08;;;14.00;99.90;;;;;;5074438;28;20032;-66
2022/11/09 11:07:34;;;;;;;9.15;3.40;;;13.80;99.90;;;;;;5074454;28;20482;-67
2022/11/09 11:10:16;;;;;;;10.40;3.38;;;13.80;99.90;;;;;;5092559;28;20050;-66
2022/11/09 11:13:05;;;;;;;7.75;2.75;;;13.80;99.90;;;;;;5047356;28;20106;-67
2022/11/09 11:15:41;;;;;;;8.38;2.78;;;13.80;99.90;;;;;;5071349;28;20079;-67
2022/11/09 11:18:25;;;;;;;7.28;3.00;;;13.70;99.90;;;;;;5092356;28;20040;-67
2022/11/09 11:21:17;;;;;;;8.93;3.15;;;13.70;99.90;;;;;;5091335;28;20127;-68
2022/11/09 11:23:44;;;;;;;11.60;3.42;;;13.60;99.90;;;;;;5087631;28;20043;-66
2022/11/09 11:26:22;;;;;;;11.65;4.00;;;13.70;99.90;;;;;;5091890;28;20493;-67
2022/11/09 11:29:21;;;;;;;16.40;3.63;;;13.70;99.90;;;;;;5073695;28;20039;-67
2022/11/09 11:31:49;;;;;;;11.30;3.20;;;13.80;99.90;;;;;;5074324;28;20556;-68
2022/11/09 11:34:15;;;;;;;11.52;3.30;;;13.80;99.90;;;;;;5104206;28;20036;-67
2022/11/09 11:36:54;;;;;;;9.40;2.85;;;13.80;99.90;;;;;;5093573;28;20038;-69
2022/11/09 11:40:00;;;;;;;13.25;4.22;;;13.80;99.90;;;;;;5055979;28;20515;-68
2022/11/09 11:42:42;;;;;;;8.95;3.08;;;13.80;99.90;;;;;;5083722;28;20069;-68
2022/11/09 11:45:43;;;;;;;7.90;3.25;;;13.70;99.90;;;;;;5090056;28;20032;-68
2022/11/09 11:48:13;;;;;;;12.73;3.30;;;13.70;99.90;;;;;;5031088;28;20529;-68
2022/11/09 11:51:01;;;;;;;10.68;3.85;;;13.60;99.90;;;;;;5096415;28;20042;-69
2022/11/09 11:53:57;;;;;;;11.52;3.42;;;13.60;99.90;;;;;;5069750;28;20178;-69
2022/11/09 11:56:37;;;;;;;11.70;3.40;;;13.50;99.90;;;;;;5089575;28;20052;-69
2022/11/09 11:59:28;;;;;;;10.10;3.22;;;13.60;99.90;;;;;;5055925;28;20132;-68
2022/11/09 12:02:24;;;;;;;12.18;3.60;;;13.70;99.90;;;;;;5073710;28;20640;-67
2022/11/09 12:05:28;;;;;;;9.18;3.28;;;13.70;99.90;;;;;;5087748;28;20039;-67
2022/11/09 12:08:05;;;;;;;11.85;3.08;;;13.80;99.90;;;;;;5086025;28;20055;-68
2022/11/09 12:10:57;;;;;;;11.30;2.78;;;14.20;99.90;;;;;;5093283;28;20043;-67
2022/11/09 12:13:40;;;;;;;11.65;4.38;;;14.50;99.90;;;;;;5087517;28;20497;-67
2022/11/09 12:16:11;;;;;;;9.48;2.70;;;14.50;99.90;;;;;;5078560;28;20036;-68
2022/11/09 12:19:15;;;;;;;13.45;4.55;;;14.30;99.90;;;;;;5098007;28;20043;-68
2022/11/09 12:21:54;;;;;;;9.70;2.55;;;14.10;99.90;;;;;;5116111;28;20067;-68
2022/11/09 12:24:33;;;;;;;15.40;2.83;;;13.90;99.90;;;;;;5116125;28;20044;-68
2022/11/09 12:27:36;;;;;;;11.00;3.15;;;13.80;99.90;;;;;;5098359;28;20043;-67
2022/11/09 12:30:13;;;;;;;10.48;2.78;;;13.60;99.90;;;;;;5095433;28;20089;-68
2022/11/09 12:33:11;;;;;;;13.68;3.90;;;13.50;99.90;;;;;;5095480;28;20039;-67
2022/11/09 12:35:47;;;;;;;6.47;2.20;;;13.40;99.90;;;;;;5095939;28;20805;-67
2022/11/09 12:38:15;;;;;;;7.80;2.33;;;13.40;99.90;;;;;;5095855;28;20078;-67
2022/11/09 12:44:42;;;;;;;9.07;2.45;;;13.40;99.90;;;;;;5034714;28;20043;-68
2022/11/09 12:47:16;;;;;;;5.70;1.63;;;13.50;99.90;;;;;;5048890;28;20048;-67
2022/11/09 12:49:45;;;;;;;8.05;1.65;;;13.50;99.90;;;;;;5035296;28;20534;-67
2022/11/09 12:52:20;;;;;;;8.25;1.75;;;13.40;99.90;;;;;;5033442;28;20179;-68
2022/11/09 12:54:49;;;;;;;9.35;1.70;;;13.30;99.90;;;;;;5033883;28;20032;-67
2022/11/09 12:57:22;;;;;;;5.97;2.00;;;13.30;99.90;;;;;;5054845;28;20049;-67
2022/11/09 12:59:53;;;;;;;8.80;1.95;;;13.30;99.90;;;;;;5055876;28;20122;-67
2022/11/09 13:02:29;;;;;;;7.18;1.75;;;13.20;99.90;;;;;;5055761;28;20040;-67
2022/11/09 13:04:58;;;;;;;8.27;1.88;;;13.30;99.90;;;;;;5055542;28;20135;-67
2022/11/09 13:07:30;;;;;;;8.32;2.20;;;13.30;99.90;;;;;;5072334;28;20037;-66
2022/11/09 13:10:00;;;;;;;12.52;2.17;;;13.30;99.90;;;;;;5055478;28;20056;-66